Time;durP1;ratioP1;P1;durP2;ratioP2;P2;SDS_P1;SDS_P2;PMS_P1;PMS_P2;Temp;Humidity;BMP_temperature;BMP_pressure;BME280_temperature;BME280_humidity;BME280_pressure;Samples;Min_cycle;Max_cycle;Signal;HPM_P1;HPM_P2
2021/03/28 00:01:14;;;;;;;5.00;2.90;;;0.90;99.90;;;;;;4327020;33;20069;-58
2021/03/28 00:03:54;;;;;;;3.90;2.90;;;0.90;99.90;;;;;;4360693;32;21664;-58
2021/03/28 00:06:27;;;;;;;4.10;3.10;;;0.90;99.90;;;;;;4335488;32;20155;-57
2021/03/28 00:09:25;;;;;;;4.75;3.05;;;0.90;99.90;;;;;;4347112;32;20074;-57
2021/03/28 00:12:06;;;;;;;;;;;0.90;99.90;;;;;;4335879;32;20163;-57
2021/03/28 00:14:38;;;;;;;4.68;2.87;;;0.80;99.90;;;;;;4361239;32;19981;-57
2021/03/28 00:17:35;;;;;;;2.95;2.65;;;0.80;99.90;;;;;;4332407;33;20450;-56
2021/03/28 00:20:07;;;;;;;3.28;2.70;;;0.80;99.90;;;;;;4339571;32;20070;-58
2021/03/28 00:22:58;;;;;;;4.07;2.55;;;0.80;99.90;;;;;;4333227;32;20063;-57
2021/03/28 00:25:55;;;;;;;4.50;2.42;;;0.80;99.90;;;;;;4339541;32;20067;-57
2021/03/28 00:28:34;;;;;;;;;;;0.70;99.90;;;;;;4334644;33;20085;-58
2021/03/28 00:31:23;;;;;;;3.30;2.55;;;0.80;99.90;;;;;;4335695;33;20013;-57
2021/03/28 00:34:26;;;;;;;3.00;2.33;;;0.70;99.90;;;;;;4348490;32;20158;-57
2021/03/28 00:37:02;;;;;;;3.92;2.58;;;0.80;99.90;;;;;;4319814;33;20059;-59
2021/03/28 00:39:44;;;;;;;5.37;2.97;;;0.70;99.90;;;;;;4345303;32;20130;-58
2021/03/28 00:42:48;;;;;;;4.28;2.92;;;0.70;99.90;;;;;;4335527;32;20086;-57
2021/03/28 00:45:44;;;;;;;4.43;2.95;;;0.60;99.90;;;;;;4345178;32;20181;-58
2021/03/28 00:48:30;;;;;;;6.10;3.17;;;0.60;99.90;;;;;;4339485;32;20082;-57
2021/03/28 00:51:20;;;;;;;6.47;3.62;;;0.60;99.90;;;;;;4332154;32;20100;-58
2021/03/28 00:53:48;;;;;;;6.15;3.08;;;0.60;99.90;;;;;;4328411;32;20561;-58
2021/03/28 00:56:41;;;;;;;4.75;2.97;;;0.60;99.90;;;;;;4343576;33;20059;-58
2021/03/28 00:59:19;;;;;;;4.25;2.60;;;0.60;99.90;;;;;;4349577;32;20066;-58
2021/03/28 01:02:20;;;;;;;3.83;2.10;;;0.50;99.90;;;;;;4337449;32;20141;-57
2021/03/28 01:05:02;;;;;;;2.62;1.98;;;0.50;99.90;;;;;;4337481;32;20074;-57
2021/03/28 01:07:38;;;;;;;4.65;2.15;;;0.50;99.90;;;;;;4363209;32;20083;-57
2021/03/28 01:10:25;;;;;;;2.60;1.80;;;0.50;99.90;;;;;;4339603;32;20616;-57
2021/03/28 01:13:13;;;;;;;3.10;1.55;;;0.40;99.90;;;;;;4340449;32;20150;-57
2021/03/28 01:15:42;;;;;;;1.95;1.40;;;0.40;99.90;;;;;;4349697;32;20078;-56
2021/03/28 01:18:28;;;;;;;1.55;1.30;;;0.40;99.90;;;;;;4334144;33;20066;-57
2021/03/28 01:21:19;;;;;;;2.55;1.85;;;0.40;99.90;;;;;;4333279;32;20082;-58
2021/03/28 01:23:46;;;;;;;2.33;1.60;;;0.40;99.90;;;;;;4328084;32;20074;-57
2021/03/28 01:26:33;;;;;;;1.83;1.50;;;0.40;99.90;;;;;;4324953;33;20070;-57
2021/03/28 01:29:30;;;;;;;2.17;1.70;;;0.30;99.90;;;;;;4331415;33;20446;-57
2021/03/28 01:32:30;;;;;;;2.20;1.80;;;0.40;99.90;;;;;;4327435;32;20062;-57
2021/03/28 01:35:09;;;;;;;2.12;1.62;;;0.30;99.90;;;;;;4336323;33;20569;-56
2021/03/28 01:38:09;;;;;;;3.95;1.70;;;0.40;99.90;;;;;;4323350;32;20504;-57
2021/03/28 01:40:45;;;;;;;2.30;1.42;;;0.30;99.90;;;;;;4326515;32;20091;-57
2021/03/28 01:43:38;;;;;;;2.12;1.50;;;0.30;99.90;;;;;;4334262;33;20526;-57
2021/03/28 01:46:51;;;;;;;1.70;1.50;;;0.30;99.90;;;;;;4338275;32;20097;-58
2021/03/28 01:49:48;;;;;;;2.80;1.45;;;0.30;99.90;;;;;;4346309;33;20591;-57
2021/03/28 01:52:47;;;;;;;5.00;2.17;;;0.30;99.90;;;;;;4328334;32;20106;-57
2021/03/28 01:55:43;;;;;;;2.45;2.00;;;0.20;99.90;;;;;;4349708;32;20636;-57
2021/03/28 01:58:26;;;;;;;2.72;1.87;;;0.20;99.90;;;;;;4342322;32;20603;-57
2021/03/28 02:01:22;;;;;;;2.80;1.92;;;0.20;99.90;;;;;;4343111;32;20074;-56
2021/03/28 02:03:55;;;;;;;2.12;1.55;;;0.20;99.90;;;;;;4326753;32;20143;-57
2021/03/28 02:07:09;;;;;;;3.42;1.85;;;0.10;99.90;;;;;;4323153;32;20092;-57
2021/03/28 02:10:17;;;;;;;1.92;1.70;;;0.10;99.90;;;;;;4321799;32;20093;-57
2021/03/28 02:12:47;;;;;;;3.30;1.90;;;0.00;99.90;;;;;;4348008;32;20086;-57
2021/03/28 02:15:41;;;;;;;2.65;1.95;;;-0.10;99.90;;;;;;4333093;32;20141;-56
2021/03/28 02:18:19;;;;;;;2.80;1.83;;;0.00;99.90;;;;;;4338635;32;20525;-57
2021/03/28 02:21:15;;;;;;;3.20;2.08;;;-0.10;99.90;;;;;;4321375;33;20094;-57
2021/03/28 02:23:56;;;;;;;3.33;2.00;;;-0.10;99.90;;;;;;4349312;32;20129;-57
2021/03/28 02:26:45;;;;;;;1.87;1.30;;;-0.20;99.90;;;;;;4324541;32;20091;-57
2021/03/28 02:29:30;;;;;;;3.22;1.52;;;-0.30;99.90;;;;;;4333756;33;20093;-56
2021/03/28 02:32:40;;;;;;;3.70;2.25;;;-0.30;99.90;;;;;;4345789;33;20071;-59
2021/03/28 02:35:53;;;;;;;4.20;2.08;;;-0.30;99.90;;;;;;4358152;32;20070;-58
2021/03/28 02:38:44;;;;;;;3.12;2.00;;;-0.40;99.90;;;;;;4311978;32;20078;-57
2021/03/28 02:41:58;;;;;;;4.25;2.28;;;-0.40;99.90;;;;;;4333213;33;20164;-57
2021/03/28 02:44:57;;;;;;;3.65;2.12;;;-0.40;99.90;;;;;;4341890;32;20461;-57
2021/03/28 02:47:39;;;;;;;4.03;2.40;;;-0.40;99.90;;;;;;4360603;32;20078;-58
2021/03/28 02:50:49;;;;;;;2.90;2.00;;;-0.40;99.90;;;;;;4345284;33;20109;-57
2021/03/28 02:53:50;;;;;;;4.18;1.70;;;-0.40;99.90;;;;;;4348269;32;20062;-57
2021/03/28 02:56:41;;;;;;;4.95;1.95;;;-0.40;99.90;;;;;;4344053;32;20553;-57
2021/03/28 02:59:24;;;;;;;3.92;1.98;;;-0.40;99.90;;;;;;4348274;32;20097;-58
2021/03/28 03:02:02;;;;;;;3.28;2.10;;;-0.50;99.90;;;;;;4333879;33;20079;-57
2021/03/28 03:05:01;;;;;;;6.12;3.90;;;-0.50;99.90;;;;;;4337418;33;20094;-57
2021/03/28 03:07:41;;;;;;;8.50;4.45;;;-0.50;99.90;;;;;;4318998;32;20167;-57
2021/03/28 03:10:38;;;;;;;6.43;3.75;;;-0.50;99.90;;;;;;4335203;32;20091;-57
2021/03/28 03:13:35;;;;;;;7.50;4.25;;;-0.60;99.90;;;;;;4346521;32;20175;-57
2021/03/28 03:16:27;;;;;;;8.15;4.25;;;-0.60;99.90;;;;;;4328968;32;20062;-57
2021/03/28 03:19:35;;;;;;;11.88;5.72;;;-0.70;99.90;;;;;;4307889;33;20143;-57
2021/03/28 03:22:01;;;;;;;10.75;4.10;;;-0.70;99.90;;;;;;4323422;33;20167;-57
2021/03/28 03:25:00;;;;;;;7.12;3.80;;;-0.70;99.90;;;;;;4327305;32;20460;-57
2021/03/28 03:28:25;;;;;;;8.57;4.35;;;-0.70;99.90;;;;;;4343351;32;20109;-56
2021/03/28 03:31:15;;;;;;;8.32;3.65;;;-0.70;99.90;;;;;;4308799;32;20097;-57
2021/03/28 03:34:18;;;;;;;4.60;2.70;;;-0.70;99.90;;;;;;4347713;32;20090;-57
2021/03/28 03:37:13;;;;;;;4.45;2.40;;;-0.70;99.90;;;;;;4334231;32;20128;-57
2021/03/28 03:40:34;;;;;;;4.82;2.30;;;-0.70;99.90;;;;;;4349254;32;20073;-58
2021/03/28 03:43:25;;;;;;;4.93;2.65;;;-0.60;99.90;;;;;;4277152;33;20071;-57
2021/03/28 03:46:17;;;;;;;4.97;3.00;;;-0.70;99.90;;;;;;4301081;33;20141;-59
2021/03/28 03:49:15;;;;;;;9.43;3.95;;;-0.70;99.90;;;;;;4308543;32;20081;-57
2021/03/28 03:51:59;;;;;;;9.25;4.85;;;-0.60;99.90;;;;;;4337680;32;20442;-57
2021/03/28 03:54:53;;;;;;;10.15;5.18;;;-0.60;99.90;;;;;;4359739;32;20159;-56
2021/03/28 03:57:41;;;;;;;10.32;4.40;;;-0.60;99.90;;;;;;4337588;32;20455;-58
2021/03/28 04:00:29;;;;;;;9.40;5.03;;;-0.50;99.90;;;;;;4351078;32;20461;-57
2021/03/28 04:03:20;;;;;;;9.95;4.65;;;-0.50;99.90;;;;;;4332626;33;20098;-57
2021/03/28 04:06:32;;;;;;;7.65;4.18;;;-0.40;99.90;;;;;;4332689;32;20082;-56
2021/03/28 04:09:18;;;;;;;8.75;4.40;;;-0.40;99.90;;;;;;4340852;32;20074;-57
2021/03/28 04:12:56;;;;;;;8.25;3.72;;;-0.40;99.90;;;;;;4335099;32;20078;-57
2021/03/28 04:15:46;;;;;;;5.12;3.03;;;-0.40;99.90;;;;;;4334073;32;20117;-57
2021/03/28 04:18:42;;;;;;;5.60;3.10;;;-0.30;99.90;;;;;;4359973;32;20164;-57
2021/03/28 04:21:32;;;;;;;6.07;2.67;;;-0.30;99.90;;;;;;4347112;32;20519;-59
2021/03/28 04:24:10;;;;;;;5.57;3.08;;;-0.30;99.90;;;;;;4323176;32;20071;-57
2021/03/28 04:27:19;;;;;;;5.57;3.20;;;-0.20;99.90;;;;;;4348145;32;20078;-57
2021/03/28 04:29:50;;;;;;;4.10;2.78;;;-0.30;99.90;;;;;;4347515;33;20086;-57
2021/03/28 04:32:41;;;;;;;3.37;1.85;;;-0.30;99.90;;;;;;4328979;32;20086;-57
2021/03/28 04:35:45;;;;;;;4.47;2.10;;;-0.30;99.90;;;;;;4335296;33;20074;-57
2021/03/28 04:39:07;;;;;;;3.42;2.05;;;-0.10;99.90;;;;;;4319220;32;20530;-57
2021/03/28 04:42:13;;;;;;;3.00;2.25;;;-0.20;99.90;;;;;;4362977;32;20079;-57
2021/03/28 04:45:05;;;;;;;3.47;1.95;;;-0.10;99.90;;;;;;4364001;32;20102;-57
2021/03/28 04:47:56;;;;;;;4.28;2.12;;;0.00;99.90;;;;;;4337746;32;20093;-57
2021/03/28 04:50:55;;;;;;;4.03;1.90;;;0.00;99.90;;;;;;4335327;33;20122;-56
2021/03/28 04:53:30;;;;;;;3.37;1.90;;;0.10;99.90;;;;;;4343450;32;20236;-57
2021/03/28 04:56:38;;;;;;;3.70;1.73;;;0.10;99.90;;;;;;4350497;32;20085;-58
2021/03/28 04:59:10;;;;;;;3.05;1.80;;;0.00;99.90;;;;;;4340226;33;20070;-59
2021/03/28 05:02:38;;;;;;;5.25;1.90;;;0.10;99.90;;;;;;4344892;32;20155;-57
2021/03/28 05:05:26;;;;;;;;;;;0.20;99.90;;;;;;4301658;32;20078;-57
2021/03/28 05:08:26;;;;;;;7.32;1.95;;;0.50;99.90;;;;;;4369858;32;20056;-57
2021/03/28 05:11:18;;;;;;;3.55;1.90;;;0.80;99.90;;;;;;4359868;32;20152;-57
2021/03/28 05:14:41;;;;;;;3.00;1.83;;;0.70;99.90;;;;;;4349725;32;20162;-57
2021/03/28 05:17:32;;;;;;;3.33;1.60;;;0.80;99.90;;;;;;4347131;33;20180;-57
2021/03/28 05:20:19;;;;;;;3.08;1.95;;;1.20;99.90;;;;;;4338444;32;20082;-57
2021/03/28 05:23:18;;;;;;;3.90;2.30;;;0.70;99.90;;;;;;4354673;32;20062;-58
2021/03/28 05:26:15;;;;;;;2.55;1.70;;;0.70;99.90;;;;;;4331695;32;20489;-57
2021/03/28 05:28:59;;;;;;;3.25;1.95;;;0.90;99.90;;;;;;4361732;32;20147;-57
2021/03/28 05:31:58;;;;;;;3.20;1.65;;;1.20;99.90;;;;;;4349175;32;20074;-57
2021/03/28 05:34:48;;;;;;;4.78;1.73;;;1.20;99.90;;;;;;4337994;33;20592;-57
2021/03/28 05:37:36;;;;;;;4.57;2.00;;;1.10;99.90;;;;;;4356181;32;20082;-57
2021/03/28 05:40:17;;;;;;;4.90;2.28;;;1.00;99.90;;;;;;4336397;33;20083;-56
2021/03/28 05:43:33;;;;;;;1.95;1.52;;;0.90;99.90;;;;;;4354819;32;20073;-57
2021/03/28 05:46:36;;;;;;;2.25;1.90;;;0.70;99.90;;;;;;4351855;32;20058;-57
2021/03/28 05:49:25;;;;;;;3.47;1.75;;;0.80;99.90;;;;;;4325901;32;20062;-57
2021/03/28 05:52:13;;;;;;;3.65;1.70;;;0.90;99.90;;;;;;4351922;32;20089;-57
2021/03/28 05:55:02;;;;;;;3.97;1.87;;;1.10;99.90;;;;;;4364996;32;20071;-57
2021/03/28 05:58:02;;;;;;;2.60;1.87;;;1.10;99.90;;;;;;4353309;32;20202;-57
2021/03/28 06:01:21;;;;;;;3.90;1.90;;;1.20;99.90;;;;;;4349001;32;20070;-59
2021/03/28 06:04:44;;;;;;;2.55;1.55;;;1.40;99.90;;;;;;4336972;32;20058;-57
2021/03/28 06:07:34;;;;;;;3.30;1.58;;;1.40;99.90;;;;;;4336367;32;20532;-57
2021/03/28 06:11:02;;;;;;;4.18;1.87;;;1.70;99.90;;;;;;4337977;32;20191;-57
2021/03/28 06:13:54;;;;;;;3.67;1.92;;;1.70;99.90;;;;;;4350523;32;20528;-59
2021/03/28 06:16:31;;;;;;;3.53;1.75;;;1.60;99.90;;;;;;4335513;32;20124;-59
2021/03/28 06:19:13;;;;;;;3.42;1.80;;;1.70;99.90;;;;;;4345160;32;20505;-60
2021/03/28 06:21:55;;;;;;;2.50;1.83;;;1.30;99.90;;;;;;4346456;32;20090;-57
2021/03/28 06:25:13;;;;;;;2.53;1.48;;;1.20;99.90;;;;;;4332854;32;20067;-58
2021/03/28 06:28:32;;;;;;;3.40;1.70;;;1.20;99.90;;;;;;4351013;32;20089;-60
2021/03/28 06:31:10;;;;;;;;;;;1.30;99.90;;;;;;4355414;32;20107;-60
2021/03/28 06:34:36;;;;;;;2.58;1.92;;;1.30;99.90;;;;;;4329231;32;20024;-57
2021/03/28 06:37:34;;;;;;;4.60;1.87;;;1.20;99.90;;;;;;4341845;32;20528;-59
2021/03/28 06:40:40;;;;;;;;;;;1.30;99.90;;;;;;4355228;32;20101;-59
2021/03/28 06:43:46;;;;;;;2.30;1.40;;;1.30;99.90;;;;;;4339126;32;19998;-60
2021/03/28 06:46:15;;;;;;;2.42;2.00;;;1.50;99.90;;;;;;4357650;32;20074;-58
2021/03/28 06:49:28;;;;;;;3.90;1.83;;;1.30;99.90;;;;;;4345080;32;20593;-58
2021/03/28 06:52:25;;;;;;;2.78;1.90;;;1.50;99.90;;;;;;4344273;32;20141;-58
2021/03/28 06:55:25;;;;;;;5.18;2.08;;;1.40;99.90;;;;;;4336521;32;20094;-58
2021/03/28 06:58:04;;;;;;;3.50;2.03;;;1.20;99.90;;;;;;4357062;32;20098;-58
2021/03/28 07:00:40;;;;;;;4.50;1.60;;;1.50;99.90;;;;;;4339278;32;20081;-59
2021/03/28 07:03:26;;;;;;;2.78;1.77;;;1.50;99.90;;;;;;4318036;32;20070;-58
2021/03/28 07:05:59;;;;;;;2.58;1.98;;;1.40;99.90;;;;;;4353753;32;20074;-58
2021/03/28 07:09:03;;;;;;;3.75;1.80;;;1.40;99.90;;;;;;4320137;32;20082;-61
2021/03/28 07:12:01;;;;;;;3.70;1.80;;;1.40;99.90;;;;;;4345152;32;20123;-59
2021/03/28 07:15:08;;;;;;;2.37;1.90;;;1.40;99.90;;;;;;4332058;32;20148;-57
2021/03/28 07:17:58;;;;;;;3.28;1.50;;;1.30;99.90;;;;;;4330362;32;20088;-59
2021/03/28 07:20:36;;;;;;;4.40;2.17;;;1.50;99.90;;;;;;4359628;32;20144;-58
2021/03/28 07:23:20;;;;;;;2.25;1.58;;;1.70;99.90;;;;;;4355023;32;20558;-59
2021/03/28 07:25:53;;;;;;;3.95;1.83;;;1.50;99.90;;;;;;4351396;32;20140;-59
2021/03/28 07:29:16;;;;;;;2.75;2.00;;;1.50;99.90;;;;;;4342630;33;20151;-59
2021/03/28 07:32:24;;;;;;;5.25;2.45;;;1.60;99.90;;;;;;4357486;32;20476;-59
2021/03/28 07:35:18;;;;;;;2.58;1.77;;;1.60;99.90;;;;;;4340414;32;20580;-58
2021/03/28 07:38:30;;;;;;;4.22;1.62;;;1.40;82.40;;;;;;4343702;32;20055;-58
2021/03/28 07:41:17;;;;;;;3.17;1.80;;;1.50;83.50;;;;;;4340225;32;20534;-60
2021/03/28 07:44:31;;;;;;;2.87;1.80;;;1.40;82.80;;;;;;4346950;32;20073;-59
2021/03/28 07:47:28;;;;;;;3.37;2.20;;;1.60;84.50;;;;;;4353983;32;20106;-57
2021/03/28 07:50:38;;;;;;;2.05;1.42;;;1.50;83.30;;;;;;4318598;32;20062;-60
2021/03/28 07:53:37;;;;;;;3.22;1.90;;;1.50;83.50;;;;;;4359693;32;20081;-58
2021/03/28 07:56:43;;;;;;;4.18;2.15;;;1.40;84.00;;;;;;4346742;32;20065;-60
2021/03/28 07:59:45;;;;;;;2.92;1.40;;;1.70;84.50;;;;;;4341655;32;20430;-58
2021/03/28 08:02:58;;;;;;;3.33;1.85;;;1.70;85.20;;;;;;4327130;32;20071;-60
2021/03/28 08:05:49;;;;;;;5.62;2.15;;;2.00;84.00;;;;;;4357187;32;20507;-58
2021/03/28 08:08:59;;;;;;;2.60;1.92;;;2.10;84.00;;;;;;4332190;33;20078;-57
2021/03/28 08:11:53;;;;;;;3.65;2.22;;;1.90;83.50;;;;;;4354661;32;20070;-59
2021/03/28 08:15:00;;;;;;;3.35;1.98;;;2.00;84.90;;;;;;4331962;32;20069;-65
2021/03/28 08:18:13;;;;;;;5.22;2.17;;;2.10;87.20;;;;;;4361189;32;20512;-60
2021/03/28 08:21:20;;;;;;;4.70;2.42;;;2.00;84.40;;;;;;4332217;32;20090;-59
2021/03/28 08:24:26;;;;;;;3.50;2.03;;;2.10;84.50;;;;;;4344598;32;20508;-59
2021/03/28 08:27:43;;;;;;;1.98;1.45;;;2.00;84.30;;;;;;4335376;33;20188;-60
2021/03/28 08:30:37;;;;;;;3.35;1.80;;;2.30;84.60;;;;;;4350929;32;20066;-61
2021/03/28 08:33:22;;;;;;;4.80;1.90;;;2.10;85.00;;;;;;4344323;32;20067;-60
2021/03/28 08:36:22;;;;;;;4.32;1.80;;;2.20;83.10;;;;;;4342536;32;20115;-61
2021/03/28 08:39:17;;;;;;;5.20;1.90;;;2.40;84.50;;;;;;4353392;32;20071;-60
2021/03/28 08:42:22;;;;;;;2.75;1.77;;;2.40;81.60;;;;;;4348536;32;20140;-63
2021/03/28 08:45:26;;;;;;;3.40;2.00;;;2.20;82.70;;;;;;4320456;33;20075;-61
2021/03/28 08:48:36;;;;;;;2.35;1.80;;;2.50;83.30;;;;;;4349251;32;20131;-60
2021/03/28 08:51:52;;;;;;;3.58;2.08;;;2.20;82.30;;;;;;4334330;32;20078;-58
2021/03/28 08:54:38;;;;;;;5.35;2.47;;;2.60;85.40;;;;;;4323610;33;20516;-60
2021/03/28 08:57:07;;;;;;;3.47;1.95;;;2.50;83.30;;;;;;4318235;32;20079;-61
2021/03/28 09:00:13;;;;;;;3.78;2.45;;;2.40;79.80;;;;;;4331689;32;20071;-62
2021/03/28 09:02:50;;;;;;;3.67;1.90;;;2.40;83.40;;;;;;4342678;32;20067;-60
2021/03/28 09:05:29;;;;;;;2.92;2.08;;;2.70;82.40;;;;;;4329488;33;20079;-59
2021/03/28 09:08:09;;;;;;;6.35;2.55;;;2.60;84.10;;;;;;4348250;32;20170;-59
2021/03/28 09:11:33;;;;;;;2.55;1.60;;;2.30;82.30;;;;;;4334511;32;20515;-58
2021/03/28 09:14:51;;;;;;;2.50;1.70;;;2.20;82.20;;;;;;4337179;33;20212;-60
2021/03/28 09:17:42;;;;;;;3.65;1.85;;;2.60;83.40;;;;;;4359747;32;20094;-61
2021/03/28 09:20:53;;;;;;;5.95;2.22;;;2.60;82.30;;;;;;4339171;32;20070;-59
2021/03/28 09:23:59;;;;;;;3.87;1.90;;;2.40;82.60;;;;;;4323502;32;20070;-59
2021/03/28 09:26:47;;;;;;;4.60;2.35;;;2.40;83.10;;;;;;4354728;32;20071;-59
2021/03/28 09:29:40;;;;;;;2.33;1.50;;;2.50;84.10;;;;;;4346341;33;20070;-58
2021/03/28 09:32:36;;;;;;;2.85;2.12;;;2.70;84.20;;;;;;4349596;32;20082;-58
2021/03/28 09:35:56;;;;;;;2.57;1.77;;;2.70;83.90;;;;;;4346905;33;20082;-58
2021/03/28 09:38:40;;;;;;;3.95;2.22;;;2.90;83.40;;;;;;4347987;32;20360;-58
2021/03/28 09:41:10;;;;;;;4.45;2.20;;;3.00;83.20;;;;;;4346451;33;20158;-59
2021/03/28 09:44:01;;;;;;;3.97;1.90;;;3.00;84.50;;;;;;4335438;32;20081;-59
2021/03/28 09:46:55;;;;;;;3.78;1.98;;;2.70;85.80;;;;;;4351215;32;20068;-60
2021/03/28 09:49:58;;;;;;;4.37;2.00;;;2.80;84.20;;;;;;4321949;32;20082;-59
2021/03/28 09:53:05;;;;;;;2.30;2.08;;;2.70;82.20;;;;;;4347438;32;20074;-59
2021/03/28 09:56:05;;;;;;;4.90;2.22;;;2.60;84.70;;;;;;4363438;32;20062;-59
2021/03/28 09:59:29;;;;;;;3.15;1.92;;;2.80;85.10;;;;;;4349150;32;20462;-60
2021/03/28 10:02:07;;;;;;;3.28;2.30;;;2.90;84.60;;;;;;4350596;32;20085;-59
2021/03/28 10:04:55;;;;;;;3.03;1.67;;;2.90;85.70;;;;;;4346367;33;20074;-60
2021/03/28 10:07:48;;;;;;;2.37;1.02;;;3.10;86.80;;;;;;4338040;32;20179;-61
2021/03/28 10:10:36;;;;;;;4.15;2.55;;;3.20;83.80;;;;;;4339626;32;20081;-59
2021/03/28 10:13:37;;;;;;;3.83;2.83;;;3.10;84.20;;;;;;4362392;32;20089;-59
2021/03/28 10:16:12;;;;;;;3.70;2.20;;;3.50;84.80;;;;;;4352333;32;20082;-58
2021/03/28 10:18:42;;;;;;;;;;;3.40;84.50;;;;;;4336264;33;20159;-58
2021/03/28 10:21:19;;;;;;;2.65;1.92;;;3.70;84.60;;;;;;4334392;32;19966;-62
2021/03/28 10:24:11;;;;;;;4.00;2.20;;;3.40;84.20;;;;;;4324277;32;20171;-59
2021/03/28 10:27:04;;;;;;;5.47;2.17;;;3.40;86.40;;;;;;4329159;33;20071;-59
2021/03/28 10:30:07;;;;;;;2.65;2.30;;;3.40;85.00;;;;;;4337007;32;20066;-58
2021/03/28 10:33:11;;;;;;;4.10;2.08;;;3.40;85.70;;;;;;4347935;32;20090;-60
2021/03/28 10:36:00;;;;;;;4.55;2.30;;;3.10;86.70;;;;;;4348235;32;20494;-58
2021/03/28 10:39:24;;;;;;;4.10;1.95;;;3.30;88.60;;;;;;4336204;32;20082;-59
2021/03/28 10:42:14;;;;;;;9.20;2.50;;;3.20;88.50;;;;;;4330802;32;20504;-58
2021/03/28 10:45:11;;;;;;;3.03;2.28;;;3.60;88.20;;;;;;4322111;33;20531;-58
2021/03/28 10:47:49;;;;;;;;;;;3.50;87.20;;;;;;4361743;32;20073;-58
2021/03/28 10:51:09;;;;;;;3.25;2.50;;;3.30;86.20;;;;;;4336827;32;20344;-58
2021/03/28 10:54:32;;;;;;;2.75;1.83;;;3.50;86.80;;;;;;4311841;33;20175;-60
2021/03/28 10:57:07;;;;;;;4.68;1.95;;;3.40;85.90;;;;;;4357434;32;20074;-58
2021/03/28 10:59:58;;;;;;;1.98;1.52;;;3.40;86.80;;;;;;4348348;32;20102;-59
2021/03/28 11:03:37;;;;;;;3.75;1.48;;;3.90;83.30;;;;;;4345957;33;20152;-59
2021/03/28 11:06:55;;;;;;;2.60;2.00;;;3.90;86.80;;;;;;4305350;33;20484;-60
2021/03/28 11:10:13;;;;;;;3.37;2.00;;;3.80;86.20;;;;;;4314815;33;20108;-61
2021/03/28 11:13:17;;;;;;;1.77;1.67;;;4.00;86.40;;;;;;4327588;32;20155;-60
2021/03/28 11:16:18;;;;;;;3.42;1.90;;;3.60;87.10;;;;;;4349063;32;20171;-58
2021/03/28 11:19:44;;;;;;;4.47;2.03;;;3.90;88.20;;;;;;4335503;32;20531;-59
2021/03/28 11:22:22;;;;;;;4.62;1.92;;;3.70;87.10;;;;;;4321775;33;20141;-60
2021/03/28 11:25:06;;;;;;;4.30;2.20;;;3.70;89.10;;;;;;4341932;32;20156;-60
2021/03/28 11:28:29;;;;;;;5.35;2.05;;;3.80;88.20;;;;;;4336445;32;20516;-59
2021/03/28 11:31:12;;;;;;;3.97;1.75;;;3.80;88.00;;;;;;4347440;32;20496;-58
2021/03/28 11:33:44;;;;;;;2.78;1.95;;;3.70;89.90;;;;;;4346312;32;20074;-58
2021/03/28 11:36:24;;;;;;;2.97;2.03;;;3.80;88.70;;;;;;4322114;32;20453;-60
2021/03/28 11:39:11;;;;;;;2.83;2.37;;;3.80;89.50;;;;;;4333547;33;20066;-60
2021/03/28 11:42:12;;;;;;;3.37;2.20;;;3.70;90.30;;;;;;4333373;32;20604;-59
2021/03/28 11:45:04;;;;;;;3.65;2.00;;;3.70;90.20;;;;;;4353978;32;20078;-59
2021/03/28 11:47:40;;;;;;;3.58;2.12;;;3.90;89.70;;;;;;4335091;32;20244;-59
2021/03/28 11:50:15;;;;;;;2.08;1.80;;;3.90;89.40;;;;;;4335097;32;20081;-59
2021/03/28 11:53:12;;;;;;;5.30;2.60;;;3.80;90.20;;;;;;4335501;32;20457;-58
2021/03/28 11:55:46;;;;;;;4.12;2.08;;;3.90;91.00;;;;;;4333025;32;20074;-58
2021/03/28 11:58:13;;;;;;;3.47;2.15;;;3.90;90.70;;;;;;4347558;32;20531;-60
2021/03/28 12:00:46;;;;;;;3.08;2.20;;;4.00;91.50;;;;;;4343517;32;20086;-58
2021/03/28 12:03:32;;;;;;;5.75;2.78;;;4.00;90.50;;;;;;4331984;32;20163;-59
2021/03/28 12:06:48;;;;;;;6.68;3.12;;;3.80;91.10;;;;;;4333958;33;20154;-60
2021/03/28 12:09:29;;;;;;;5.97;2.60;;;3.90;91.10;;;;;;4356478;32;20530;-59
2021/03/28 12:11:59;;;;;;;4.65;2.78;;;3.70;90.40;;;;;;4325627;32;20141;-59
2021/03/28 12:14:32;;;;;;;5.32;2.40;;;3.70;91.20;;;;;;4319568;32;20523;-58
2021/03/28 12:17:11;;;;;;;5.70;2.72;;;3.80;91.40;;;;;;4347306;32;20449;-58
2021/03/28 12:19:53;;;;;;;4.80;2.75;;;3.80;92.00;;;;;;4333789;32;20090;-59
2021/03/28 12:22:45;;;;;;;4.37;2.60;;;3.70;91.70;;;;;;4336569;32;20081;-59
2021/03/28 12:25:15;;;;;;;4.60;2.58;;;3.80;92.10;;;;;;4333827;33;20521;-59
2021/03/28 12:27:57;;;;;;;4.93;2.50;;;3.80;92.60;;;;;;4359276;32;20126;-59
2021/03/28 12:30:32;;;;;;;5.97;2.62;;;3.80;92.60;;;;;;4347241;32;20063;-59
2021/03/28 12:33:15;;;;;;;5.68;2.92;;;3.90;92.50;;;;;;4320368;33;20078;-59
2021/03/28 12:35:47;;;;;;;4.62;1.85;;;3.80;92.10;;;;;;4346558;32;20094;-58
2021/03/28 12:38:28;;;;;;;4.25;2.10;;;3.80;92.30;;;;;;4331903;33;20171;-59
2021/03/28 12:41:13;;;;;;;5.22;2.00;;;3.80;92.60;;;;;;4347569;32;20106;-59
2021/03/28 12:43:51;;;;;;;5.28;2.40;;;4.00;92.40;;;;;;4334993;32;20105;-58
2021/03/28 12:46:26;;;;;;;4.85;2.78;;;3.90;91.90;;;;;;4337949;33;20156;-58
2021/03/28 12:49:19;;;;;;;3.60;2.08;;;3.90;92.30;;;;;;4356984;32;20094;-59
2021/03/28 12:52:00;;;;;;;4.90;1.83;;;3.90;92.20;;;;;;4305541;32;20215;-60
2021/03/28 12:54:32;;;;;;;2.87;1.98;;;3.90;92.10;;;;;;4335125;33;20086;-58
2021/03/28 12:57:03;;;;;;;5.28;2.42;;;4.00;92.60;;;;;;4334536;32;20066;-60
2021/03/28 12:59:39;;;;;;;5.50;2.50;;;3.90;91.80;;;;;;4350043;32;20102;-58
2021/03/28 13:02:24;;;;;;;3.78;2.17;;;4.00;92.30;;;;;;4337664;33;20144;-60
2021/03/28 13:05:01;;;;;;;6.15;2.37;;;3.90;93.40;;;;;;4332133;32;20077;-58
2021/03/28 13:07:40;;;;;;;4.72;2.08;;;3.90;93.20;;;;;;4325076;32;20081;-59
2021/03/28 13:10:29;;;;;;;6.35;2.70;;;3.80;93.70;;;;;;4337282;33;20524;-59
2021/03/28 13:13:01;;;;;;;3.78;2.08;;;3.80;95.10;;;;;;4319932;32;20534;-59
2021/03/28 13:15:46;;;;;;;3.42;1.65;;;3.70;93.80;;;;;;4334506;32;20075;-60
2021/03/28 13:18:58;;;;;;;3.25;2.08;;;3.80;95.60;;;;;;4324958;33;20081;-58
2021/03/28 13:21:35;;;;;;;3.67;1.90;;;3.90;94.60;;;;;;4305311;33;20518;-60
2021/03/28 13:24:16;;;;;;;2.70;2.00;;;3.70;94.70;;;;;;4283430;33;20088;-60
2021/03/28 13:27:14;;;;;;;3.15;2.10;;;3.70;95.40;;;;;;4320515;33;20157;-61
2021/03/28 13:29:53;;;;;;;3.78;2.40;;;3.70;97.30;;;;;;4337701;32;20121;-59
2021/03/28 13:32:30;;;;;;;3.08;1.67;;;3.70;97.60;;;;;;4314543;32;20079;-58
2021/03/28 13:35:05;;;;;;;3.03;2.00;;;3.70;98.10;;;;;;4322354;33;20090;-59
2021/03/28 13:37:49;;;;;;;3.95;2.65;;;3.60;97.40;;;;;;4335338;32;20069;-60
2021/03/28 13:40:15;;;;;;;5.60;2.22;;;3.70;97.40;;;;;;4323333;33;20066;-58
2021/03/28 13:43:19;;;;;;;3.17;1.83;;;3.60;98.60;;;;;;4355243;32;20084;-59
2021/03/28 13:45:46;;;;;;;3.60;1.95;;;3.50;99.90;;;;;;4261055;33;20072;-59
2021/03/28 13:48:12;;;;;;;6.15;2.30;;;3.60;98.60;;;;;;4293024;33;20067;-60
2021/03/28 13:51:01;;;;;;;2.25;1.80;;;3.40;99.30;;;;;;4329896;32;20148;-60
2021/03/28 13:53:57;;;;;;;4.37;2.00;;;3.40;99.90;;;;;;4337359;32;20485;-59
2021/03/28 13:56:57;;;;;;;2.45;1.90;;;3.40;99.90;;;;;;4365945;32;20067;-59
2021/03/28 13:59:28;;;;;;;3.03;1.90;;;3.30;99.90;;;;;;4351265;32;20059;-58
2021/03/28 14:02:18;;;;;;;3.58;1.98;;;3.30;99.90;;;;;;4324802;32;20070;-58
2021/03/28 14:04:59;;;;;;;4.03;1.75;;;3.20;99.90;;;;;;4334029;33;20148;-58
2021/03/28 14:07:41;;;;;;;3.72;2.08;;;3.10;99.90;;;;;;4338935;32;20059;-58
2021/03/28 14:10:13;;;;;;;5.40;1.80;;;3.10;99.90;;;;;;4334233;33;20075;-58
2021/03/28 14:13:39;;;;;;;4.40;2.12;;;3.00;99.90;;;;;;4342260;32;20063;-59
2021/03/28 14:16:14;;;;;;;3.72;2.45;;;3.00;99.90;;;;;;4319823;32;20458;-59
2021/03/28 14:18:48;;;;;;;4.07;2.40;;;3.00;99.90;;;;;;4313448;32;20094;-58
2021/03/28 14:21:29;;;;;;;7.55;2.60;;;3.10;99.90;;;;;;4334846;32;20071;-58
2021/03/28 14:24:07;;;;;;;4.75;2.45;;;3.00;99.90;;;;;;4325280;32;20149;-58
2021/03/28 14:26:51;;;;;;;5.70;1.98;;;3.10;99.90;;;;;;4327399;33;20165;-59
2021/03/28 14:29:36;;;;;;;4.00;2.25;;;3.00;99.90;;;;;;4323686;32;20071;-58
2021/03/28 14:32:38;;;;;;;3.10;2.00;;;3.00;99.90;;;;;;4324486;32;20086;-58
2021/03/28 14:35:20;;;;;;;6.00;2.50;;;3.10;99.90;;;;;;4350417;32;20071;-58
2021/03/28 14:38:39;;;;;;;2.95;2.08;;;3.10;99.90;;;;;;4332814;32;20097;-59
2021/03/28 14:41:22;;;;;;;4.32;2.10;;;3.10;99.90;;;;;;4346354;33;20067;-59
2021/03/28 14:44:26;;;;;;;2.70;1.92;;;3.20;99.90;;;;;;4348011;32;20082;-58
2021/03/28 14:47:02;;;;;;;5.50;2.55;;;3.20;99.90;;;;;;4336306;33;20465;-59
2021/03/28 14:50:14;;;;;;;5.30;2.00;;;3.20;99.90;;;;;;4335249;32;20058;-59
2021/03/28 14:52:54;;;;;;;3.83;1.87;;;3.20;99.90;;;;;;4361425;32;20098;-59
2021/03/28 14:55:48;;;;;;;5.68;2.00;;;3.20;99.90;;;;;;4334500;33;20210;-58
2021/03/28 14:58:46;;;;;;;6.18;2.50;;;3.20;99.90;;;;;;4358218;32;20070;-59
2021/03/28 15:01:48;;;;;;;6.43;2.28;;;3.20;99.90;;;;;;4336438;32;20090;-58
2021/03/28 15:05:21;;;;;;;6.57;2.83;;;3.10;99.90;;;;;;4320017;32;20063;-59
2021/03/28 15:08:31;;;;;;;2.95;2.00;;;3.00;99.90;;;;;;4313335;33;20226;-59
2021/03/28 15:11:38;;;;;;;5.37;2.30;;;2.90;99.90;;;;;;4322871;32;20132;-59